createdAt,value
2018-08-12T00:00:34.599Z,0.00
2018-08-12T00:01:34.586Z,0.00
2018-08-12T00:02:34.614Z,0.00
2018-08-12T00:03:34.567Z,0.00
2018-08-12T00:04:34.568Z,0.00
2018-08-12T00:05:34.559Z,0.00
2018-08-12T00:06:34.551Z,0.00
2018-08-12T00:07:34.557Z,0.00
2018-08-12T00:08:34.546Z,0.00
2018-08-12T00:09:34.552Z,0.00
2018-08-12T00:10:34.547Z,0.00
2018-08-12T00:11:34.533Z,0.00
2018-08-12T00:12:34.530Z,0.00
2018-08-12T00:13:34.525Z,0.00
2018-08-12T00:14:34.519Z,0.00
2018-08-12T00:15:34.512Z,0.00
2018-08-12T00:16:34.509Z,0.00
2018-08-12T00:17:34.515Z,0.00
2018-08-12T00:18:34.501Z,0.00
2018-08-12T00:19:34.496Z,0.00
2018-08-12T00:20:34.494Z,0.00
2018-08-12T00:21:34.488Z,0.00
2018-08-12T00:22:34.485Z,0.00
2018-08-12T00:23:34.491Z,0.00
2018-08-12T00:24:34.489Z,0.00
2018-08-12T00:25:34.476Z,0.00
2018-08-12T00:26:34.479Z,0.00
2018-08-12T00:27:34.463Z,0.00
2018-08-12T00:28:34.454Z,0.00
2018-08-12T00:29:34.486Z,0.00
2018-08-12T00:30:34.484Z,0.00
2018-08-12T00:31:34.443Z,0.00
2018-08-12T00:32:34.441Z,0.00
2018-08-12T00:33:34.430Z,0.00
2018-08-12T00:34:34.426Z,0.00
2018-08-12T00:35:34.469Z,0.00
2018-08-12T00:36:34.418Z,0.00
2018-08-12T00:37:34.416Z,0.00
2018-08-12T00:38:34.439Z,0.00
2018-08-12T00:39:34.416Z,0.00
2018-08-12T00:40:34.400Z,0.00
2018-08-12T00:41:34.402Z,0.00
2018-08-12T00:42:34.393Z,0.00
2018-08-12T00:43:34.390Z,0.00
2018-08-12T00:44:34.385Z,0.00
2018-08-12T00:45:34.381Z,0.00
2018-08-12T00:46:34.417Z,0.00
2018-08-12T00:47:34.389Z,0.00
2018-08-12T00:48:34.379Z,0.00
2018-08-12T00:49:34.364Z,0.00
2018-08-12T00:50:34.358Z,0.00
2018-08-12T00:51:34.357Z,0.00
2018-08-12T00:52:34.356Z,0.00
2018-08-12T00:53:34.346Z,0.00
2018-08-12T00:54:34.338Z,0.00
2018-08-12T00:55:34.336Z,0.00
2018-08-12T00:56:34.338Z,0.00
2018-08-12T00:57:34.352Z,0.00
2018-08-12T00:58:34.324Z,0.00
2018-08-12T00:59:34.323Z,0.00
2018-08-12T01:00:34.315Z,0.00
2018-08-12T01:01:34.309Z,0.00
2018-08-12T01:02:34.302Z,0.00
2018-08-12T01:03:34.300Z,0.00
2018-08-12T01:04:34.296Z,0.00
2018-08-12T01:05:34.287Z,0.00
2018-08-12T01:06:34.309Z,0.00
2018-08-12T01:07:34.280Z,0.00
2018-08-12T01:08:34.287Z,0.00
2018-08-12T01:09:34.268Z,0.00
2018-08-12T01:10:34.265Z,0.00
2018-08-12T01:11:34.264Z,0.00
2018-08-12T01:12:34.255Z,0.00
2018-08-12T01:13:34.264Z,0.00
2018-08-12T01:14:34.243Z,0.00
2018-08-12T01:15:34.248Z,0.00
2018-08-12T01:16:34.265Z,0.00
2018-08-12T01:17:34.239Z,0.00
2018-08-12T01:18:49.347Z,0.00
2018-08-12T01:19:34.222Z,0.00
2018-08-12T01:20:34.214Z,0.00
2018-08-12T01:21:34.214Z,0.00
2018-08-12T01:22:34.206Z,0.00
2018-08-12T01:23:34.204Z,0.00
2018-08-12T01:24:34.210Z,0.00
2018-08-12T01:25:34.193Z,0.00
2018-08-12T01:26:34.195Z,0.00
2018-08-12T01:27:34.184Z,0.00
2018-08-12T01:28:34.216Z,0.00
2018-08-12T01:29:34.714Z,0.00
2018-08-12T01:30:34.169Z,0.00
2018-08-12T01:31:34.171Z,0.00
2018-08-12T01:32:34.175Z,0.00
2018-08-12T01:33:34.163Z,0.00
2018-08-12T01:34:34.153Z,0.00
2018-08-12T01:35:34.157Z,0.00
2018-08-12T01:36:34.154Z,0.00
2018-08-12T01:37:34.137Z,0.00
2018-08-12T01:38:34.721Z,0.00
2018-08-12T01:39:34.125Z,0.00
2018-08-12T01:40:34.128Z,0.00
2018-08-12T01:41:34.128Z,0.00
2018-08-12T01:42:34.130Z,0.00
2018-08-12T01:43:34.111Z,0.00
2018-08-12T01:44:34.134Z,0.00
2018-08-12T01:45:34.100Z,0.00
2018-08-12T01:46:34.091Z,0.00
2018-08-12T01:47:34.089Z,0.00
2018-08-12T01:48:34.081Z,0.00
2018-08-12T01:49:34.091Z,0.00
2018-08-12T01:50:34.075Z,0.00
2018-08-12T01:51:34.069Z,0.00
2018-08-12T01:52:34.070Z,0.00
2018-08-12T01:53:34.101Z,0.00
2018-08-12T01:54:34.049Z,0.00
2018-08-12T01:55:34.052Z,0.00
2018-08-12T01:56:34.039Z,0.00
2018-08-12T01:57:34.033Z,0.00
2018-08-12T01:58:34.041Z,0.00
2018-08-12T01:59:34.035Z,0.00
2018-08-12T02:00:34.069Z,0.00
2018-08-12T02:01:34.020Z,0.00
2018-08-12T02:02:34.013Z,0.00
2018-08-12T02:03:34.011Z,0.00
2018-08-12T02:04:34.013Z,0.00
2018-08-12T02:05:34.020Z,0.00
2018-08-12T02:06:34.003Z,0.00
2018-08-12T02:07:33.994Z,0.00
2018-08-12T02:08:34.012Z,0.00
2018-08-12T02:09:33.973Z,0.00
2018-08-12T02:10:34.744Z,0.00
2018-08-12T02:11:33.971Z,0.00
2018-08-12T02:12:33.967Z,0.00
2018-08-12T02:13:33.956Z,0.00
2018-08-12T02:14:33.950Z,0.00
2018-08-12T02:15:33.977Z,0.00
2018-08-12T02:16:33.959Z,0.00
2018-08-12T02:17:33.931Z,0.00
2018-08-12T02:18:33.946Z,0.00
2018-08-12T02:19:33.927Z,0.00
2018-08-12T02:20:33.927Z,0.00
2018-08-12T02:21:33.910Z,0.00
2018-08-12T02:22:33.909Z,0.00
2018-08-12T02:23:33.916Z,0.00
2018-08-12T02:24:33.907Z,0.00
2018-08-12T02:25:33.921Z,0.00
2018-08-12T02:26:33.932Z,0.00
2018-08-12T02:27:33.906Z,0.00
2018-08-12T02:28:33.879Z,0.00
2018-08-12T02:29:33.892Z,0.00
2018-08-12T02:30:33.871Z,0.00
2018-08-12T02:31:33.862Z,0.00
2018-08-12T02:32:33.873Z,0.00
2018-08-12T02:33:33.866Z,0.00
2018-08-12T02:34:33.844Z,0.00
2018-08-12T02:35:33.843Z,0.00
2018-08-12T02:36:34.756Z,0.00
2018-08-12T02:37:33.839Z,0.00
2018-08-12T02:38:33.819Z,0.00
2018-08-12T02:39:33.831Z,0.00
2018-08-12T02:40:33.838Z,0.00
2018-08-12T02:41:33.833Z,0.00
2018-08-12T02:42:33.813Z,0.00
2018-08-12T02:43:33.809Z,0.00
2018-08-12T02:44:33.796Z,0.00
2018-08-12T02:45:33.788Z,0.00
2018-08-12T02:46:33.776Z,0.00
2018-08-12T02:47:33.773Z,0.00
2018-08-12T02:48:33.788Z,0.00
2018-08-12T02:49:33.764Z,0.00
2018-08-12T02:50:33.779Z,0.00
2018-08-12T02:51:33.760Z,0.00
2018-08-12T02:52:33.750Z,0.00
2018-08-12T02:53:33.743Z,0.00
2018-08-12T02:54:33.746Z,0.00
2018-08-12T02:55:33.743Z,0.00
2018-08-12T02:56:33.727Z,0.00
2018-08-12T02:57:33.724Z,0.00
2018-08-12T02:58:33.723Z,0.00
2018-08-12T02:59:33.711Z,0.00
2018-08-12T03:00:33.709Z,0.00
2018-08-12T03:01:33.704Z,0.00
2018-08-12T03:02:34.261Z,0.00
2018-08-12T03:03:33.693Z,0.00
2018-08-12T03:04:33.683Z,0.00
2018-08-12T03:05:33.690Z,0.00
2018-08-12T03:06:33.678Z,0.00
2018-08-12T03:07:33.680Z,0.00
2018-08-12T03:08:33.666Z,0.00
2018-08-12T03:09:33.656Z,0.00
2018-08-12T03:10:33.653Z,0.00
2018-08-12T03:11:33.651Z,0.00
2018-08-12T03:12:33.647Z,0.00
2018-08-12T03:13:33.638Z,0.00
2018-08-12T03:14:33.632Z,0.00
2018-08-12T03:15:33.644Z,0.00
2018-08-12T03:16:33.638Z,0.00
2018-08-12T03:17:33.618Z,0.00
2018-08-12T03:18:33.613Z,0.00
2018-08-12T03:19:33.609Z,0.00
2018-08-12T03:20:33.615Z,0.00
2018-08-12T03:21:33.591Z,0.00
2018-08-12T03:22:33.687Z,0.00
2018-08-12T03:23:33.583Z,0.00
2018-08-12T03:24:33.576Z,0.00
2018-08-12T03:25:33.605Z,0.00
2018-08-12T03:26:33.575Z,0.00
2018-08-12T03:27:33.560Z,0.00
2018-08-12T03:28:33.557Z,0.00
2018-08-12T03:29:33.549Z,0.00
2018-08-12T03:30:33.547Z,0.00
2018-08-12T03:31:33.546Z,0.00
2018-08-12T03:32:33.543Z,0.00
2018-08-12T03:33:33.533Z,0.00
2018-08-12T03:34:33.520Z,0.00
2018-08-12T03:35:33.517Z,0.00
2018-08-12T03:36:33.537Z,0.00
2018-08-12T03:37:33.508Z,0.00
2018-08-12T03:38:33.499Z,0.00
2018-08-12T03:39:33.498Z,0.00
2018-08-12T03:40:33.490Z,0.00
2018-08-12T03:41:33.483Z,0.00
2018-08-12T03:42:33.483Z,0.00
2018-08-12T03:43:33.474Z,0.00
2018-08-12T03:44:33.468Z,0.00
2018-08-12T03:45:33.465Z,0.00
2018-08-12T03:46:33.453Z,0.00
2018-08-12T03:47:33.453Z,0.00
2018-08-12T03:48:34.281Z,0.00
2018-08-12T03:49:33.451Z,0.00
2018-08-12T03:50:35.285Z,0.00
2018-08-12T03:51:33.436Z,0.00
2018-08-12T03:52:33.426Z,0.00
2018-08-12T03:53:33.450Z,0.00
2018-08-12T03:54:33.444Z,0.00
2018-08-12T03:55:33.414Z,0.00
2018-08-12T03:56:33.407Z,5.63
2018-08-12T03:57:33.409Z,5.63
2018-08-12T03:58:33.393Z,5.63
2018-08-12T03:59:35.298Z,5.63
2018-08-12T04:00:33.379Z,5.63
2018-08-12T04:01:33.372Z,5.63
2018-08-12T04:02:33.364Z,11.25
2018-08-12T04:03:33.358Z,11.25
2018-08-12T04:04:33.359Z,11.25
2018-08-12T04:05:33.352Z,11.25
2018-08-12T04:06:33.366Z,11.25
2018-08-12T04:07:33.342Z,16.88
2018-08-12T04:08:33.332Z,16.88
2018-08-12T04:09:33.330Z,16.88
2018-08-12T04:10:33.328Z,16.88
2018-08-12T04:11:33.315Z,22.50
2018-08-12T04:12:33.309Z,22.50
2018-08-12T04:13:33.308Z,28.13
2018-08-12T04:14:33.300Z,28.13
2018-08-12T04:15:33.297Z,28.13
2018-08-12T04:16:33.289Z,33.75
2018-08-12T04:17:33.278Z,33.75
2018-08-12T04:18:33.274Z,39.38
2018-08-12T04:19:33.273Z,39.38
2018-08-12T04:20:33.268Z,39.38
2018-08-12T04:21:33.289Z,45.00
2018-08-12T04:22:33.258Z,50.63
2018-08-12T04:23:33.250Z,50.63
2018-08-12T04:24:33.248Z,56.25
2018-08-12T04:25:33.233Z,56.25
2018-08-12T04:26:33.233Z,61.88
2018-08-12T04:27:33.222Z,61.88
2018-08-12T04:28:33.220Z,67.50
2018-08-12T04:29:33.212Z,67.50
2018-08-12T04:30:33.213Z,73.13
2018-08-12T04:31:33.207Z,73.13
2018-08-12T04:32:33.195Z,78.75
2018-08-12T04:33:33.199Z,84.38
2018-08-12T04:34:33.187Z,90.00
2018-08-12T04:35:33.175Z,90.00
2018-08-12T04:36:33.180Z,90.00
2018-08-12T04:37:33.167Z,95.63
2018-08-12T04:38:33.170Z,95.63
2018-08-12T04:39:33.155Z,101.25
2018-08-12T04:40:33.151Z,106.88
2018-08-12T04:41:33.151Z,112.50
2018-08-12T04:42:33.159Z,118.13
2018-08-12T04:43:33.141Z,123.75
2018-08-12T04:44:33.128Z,123.75
2018-08-12T04:45:33.122Z,129.38
2018-08-12T04:46:33.120Z,135.00
2018-08-12T04:47:33.121Z,140.63
2018-08-12T04:48:33.107Z,140.63
2018-08-12T04:49:33.102Z,151.88
2018-08-12T04:50:33.093Z,146.25
2018-08-12T04:51:33.094Z,157.50
2018-08-12T04:52:33.085Z,163.13
2018-08-12T04:53:33.105Z,174.38
2018-08-12T04:54:33.072Z,185.63
2018-08-12T04:55:33.073Z,191.25
2018-08-12T04:56:33.066Z,196.88
2018-08-12T04:57:33.059Z,208.13
2018-08-12T04:58:33.056Z,213.75
2018-08-12T04:59:33.054Z,219.38
2018-08-12T05:00:33.039Z,225.00
2018-08-12T05:01:33.032Z,230.63
2018-08-12T05:02:33.028Z,253.13
2018-08-12T05:03:33.049Z,320.63
2018-08-12T05:04:33.031Z,343.13
2018-08-12T05:05:33.011Z,371.25
2018-08-12T05:06:33.008Z,511.88
2018-08-12T05:07:33.007Z,568.13
2018-08-12T05:08:32.997Z,573.75
2018-08-12T05:09:32.988Z,613.13
2018-08-12T05:10:32.994Z,652.50
2018-08-12T05:11:33.000Z,669.38
2018-08-12T05:12:32.976Z,646.88
2018-08-12T05:13:32.970Z,675.00
2018-08-12T05:14:32.972Z,725.63
2018-08-12T05:15:32.962Z,798.75
2018-08-12T05:16:32.957Z,753.75
2018-08-12T05:17:32.954Z,646.88
2018-08-12T05:18:32.958Z,613.13
2018-08-12T05:19:32.941Z,646.88
2018-08-12T05:20:32.937Z,776.25
2018-08-12T05:21:32.936Z,860.63
2018-08-12T05:22:32.931Z,1018.13
2018-08-12T05:23:32.923Z,1080.00
2018-08-12T05:24:32.922Z,1068.75
2018-08-12T05:25:32.919Z,871.88
2018-08-12T05:26:32.906Z,781.88
2018-08-12T05:27:32.907Z,613.13
2018-08-12T05:28:32.916Z,540.00
2018-08-12T05:29:32.908Z,545.63
2018-08-12T05:30:32.906Z,753.75
2018-08-12T05:31:32.895Z,736.88
2018-08-12T05:32:32.883Z,956.25
2018-08-12T05:33:32.877Z,1147.50
2018-08-12T05:34:32.877Z,1130.63
2018-08-12T05:35:32.948Z,1186.88
2018-08-12T05:36:32.867Z,1327.50
2018-08-12T05:37:32.867Z,1428.75
2018-08-12T05:38:32.864Z,1327.50
2018-08-12T05:39:32.866Z,871.88
2018-08-12T05:40:32.864Z,933.75
2018-08-12T05:41:32.853Z,1051.88
2018-08-12T05:42:32.851Z,961.88
2018-08-12T05:43:32.851Z,596.25
2018-08-12T05:44:32.838Z,658.13
2018-08-12T05:45:32.836Z,742.50
2018-08-12T05:46:32.834Z,1226.25
2018-08-12T05:47:32.849Z,1350.00
2018-08-12T05:48:32.824Z,1051.88
2018-08-12T05:49:32.825Z,950.63
2018-08-12T05:50:32.816Z,1400.63
2018-08-12T05:51:32.902Z,1766.25
2018-08-12T05:52:32.814Z,1721.25
2018-08-12T05:53:32.810Z,1338.75
2018-08-12T05:54:32.806Z,945.00
2018-08-12T05:55:32.814Z,720.00
2018-08-12T05:56:32.800Z,669.38
2018-08-12T05:57:32.797Z,663.75
2018-08-12T05:58:32.793Z,691.88
2018-08-12T05:59:32.799Z,652.50
2018-08-12T06:00:32.800Z,658.13
2018-08-12T06:01:32.783Z,787.50
2018-08-12T06:02:32.852Z,691.88
2018-08-12T06:03:32.787Z,753.75
2018-08-12T06:04:32.775Z,646.88
2018-08-12T06:05:32.771Z,781.88
2018-08-12T06:06:32.769Z,995.63
2018-08-12T06:07:32.767Z,1125.00
2018-08-12T06:08:32.771Z,1530.00
2018-08-12T06:09:32.773Z,1608.75
2018-08-12T06:10:32.770Z,1805.63
2018-08-12T06:11:32.800Z,1940.63
2018-08-12T06:12:32.752Z,1996.88
2018-08-12T06:13:32.747Z,2025.00
2018-08-12T06:14:32.747Z,2041.88
2018-08-12T06:15:32.804Z,2047.50
2018-08-12T06:16:32.745Z,2047.50
2018-08-12T06:17:32.859Z,1991.25
2018-08-12T06:18:32.741Z,1755.00
2018-08-12T06:19:32.735Z,1603.13
2018-08-12T06:20:32.735Z,1766.25
2018-08-12T06:21:32.735Z,1732.50
2018-08-12T06:22:32.726Z,1175.63
2018-08-12T06:23:32.724Z,905.63
2018-08-12T06:24:32.727Z,770.63
2018-08-12T06:25:32.716Z,691.88
2018-08-12T06:26:32.717Z,686.25
2018-08-12T06:27:32.720Z,607.50
2018-08-12T06:28:32.711Z,613.13
2018-08-12T06:29:32.706Z,748.13
2018-08-12T06:30:32.712Z,832.50
2018-08-12T06:31:32.743Z,950.63
2018-08-12T06:32:32.710Z,1057.50
2018-08-12T06:33:32.715Z,1012.50
2018-08-12T06:34:32.737Z,916.88
2018-08-12T06:35:32.725Z,894.38
2018-08-12T06:36:32.718Z,843.75
2018-08-12T06:37:32.702Z,810.00
2018-08-12T06:38:32.701Z,894.38
2018-08-12T06:39:32.690Z,950.63
2018-08-12T06:40:32.688Z,939.38
2018-08-12T06:41:32.688Z,736.88
2018-08-12T06:42:32.685Z,1085.63
2018-08-12T06:43:32.716Z,1226.25
2018-08-12T06:44:32.690Z,821.25
2018-08-12T06:45:32.680Z,663.75
2018-08-12T06:46:32.676Z,641.25
2018-08-12T06:47:32.676Z,956.25
2018-08-12T06:48:32.700Z,1957.50
2018-08-12T06:49:32.668Z,2109.38
2018-08-12T06:50:32.671Z,1029.38
2018-08-12T06:51:32.669Z,708.75
2018-08-12T06:52:32.664Z,1063.13
2018-08-12T06:53:32.667Z,1771.88
2018-08-12T06:54:32.665Z,1327.50
2018-08-12T06:55:32.665Z,1006.88
2018-08-12T06:56:32.665Z,911.25
2018-08-12T06:57:32.677Z,888.75
2018-08-12T06:58:32.652Z,652.50
2018-08-12T06:59:32.657Z,765.00
2018-08-12T07:00:32.674Z,1625.63
2018-08-12T07:01:32.651Z,1603.13
2018-08-12T07:02:32.646Z,1063.13
2018-08-12T07:03:32.645Z,1046.25
2018-08-12T07:04:32.651Z,933.75
2018-08-12T07:05:32.652Z,607.50
2018-08-12T07:06:32.642Z,669.38
2018-08-12T07:07:32.638Z,686.25
2018-08-12T07:08:32.640Z,950.63
2018-08-12T07:09:32.634Z,748.13
2018-08-12T07:10:32.640Z,826.88
2018-08-12T07:11:32.635Z,1254.38
2018-08-12T07:12:32.646Z,1333.13
2018-08-12T07:13:32.620Z,1867.50
2018-08-12T07:14:32.627Z,2919.38
2018-08-12T07:15:32.616Z,3960.00
2018-08-12T07:16:32.623Z,4263.75
2018-08-12T07:17:32.616Z,4578.75
2018-08-12T07:18:32.623Z,4708.13
2018-08-12T07:19:37.408Z,5096.25
2018-08-12T07:20:32.612Z,4280.63
2018-08-12T07:21:32.612Z,3594.38
2018-08-12T07:22:32.603Z,3808.13
2018-08-12T07:23:32.612Z,3678.75
2018-08-12T07:24:32.618Z,2756.25
2018-08-12T07:25:32.600Z,2902.50
2018-08-12T07:26:32.605Z,3543.75
2018-08-12T07:27:32.609Z,4955.63
2018-08-12T07:28:32.598Z,5287.50
2018-08-12T07:29:32.600Z,5416.88
2018-08-12T07:30:32.609Z,4888.13
2018-08-12T07:31:32.615Z,4466.25
2018-08-12T07:32:32.626Z,4775.63
2018-08-12T07:33:32.602Z,5017.50
2018-08-12T07:34:32.611Z,5113.13
2018-08-12T07:35:32.689Z,5011.88
2018-08-12T07:36:32.674Z,4781.25
2018-08-12T07:37:32.603Z,4944.38
2018-08-12T07:38:32.643Z,5051.25
2018-08-12T07:39:32.607Z,4899.38
2018-08-12T07:40:33.617Z,5085.00
2018-08-12T07:41:32.622Z,5248.13
2018-08-12T07:42:34.415Z,5456.25
2018-08-12T07:43:32.616Z,5535.00
2018-08-12T07:44:32.616Z,5225.63
2018-08-12T07:45:32.619Z,5265.00
2018-08-12T07:46:32.620Z,5422.50
2018-08-12T07:47:32.627Z,5377.50
2018-08-12T07:48:32.639Z,5304.38
2018-08-12T07:49:32.628Z,5298.75
2018-08-12T07:50:32.650Z,5220.00
2018-08-12T07:51:32.634Z,5467.50
2018-08-12T07:52:32.674Z,5850.00
2018-08-12T07:53:32.646Z,5596.88
2018-08-12T07:54:32.671Z,5203.13
2018-08-12T07:55:32.758Z,5214.38
2018-08-12T07:56:32.652Z,5422.50
2018-08-12T07:57:32.717Z,5765.63
2018-08-12T07:58:32.671Z,5641.88
2018-08-12T07:59:32.658Z,6035.63
2018-08-12T08:00:32.670Z,6091.88
2018-08-12T08:01:32.700Z,6215.63
2018-08-12T08:02:32.730Z,6423.75
2018-08-12T08:03:32.683Z,6547.50
2018-08-12T08:04:33.444Z,6108.75
2018-08-12T08:05:32.705Z,3819.38
2018-08-12T08:06:32.692Z,4685.63
2018-08-12T08:07:32.696Z,5574.38
2018-08-12T08:08:32.700Z,2182.50
2018-08-12T08:09:37.435Z,2008.13
2018-08-12T08:10:32.717Z,3172.50
2018-08-12T08:11:32.719Z,3093.75
2018-08-12T08:12:32.735Z,5478.75
2018-08-12T08:13:32.725Z,7138.13
2018-08-12T08:14:32.722Z,3031.88
2018-08-12T08:15:32.730Z,3116.25
2018-08-12T08:16:32.736Z,4910.63
2018-08-12T08:17:32.789Z,4128.75
2018-08-12T08:18:32.767Z,6243.75
2018-08-12T08:19:32.743Z,5023.13
2018-08-12T08:20:32.746Z,4128.75
2018-08-12T08:21:32.748Z,4528.13
2018-08-12T08:22:32.754Z,6075.00
2018-08-12T08:23:32.774Z,6052.50
2018-08-12T08:24:32.776Z,6210.00
2018-08-12T08:25:32.876Z,6390.00
2018-08-12T08:26:32.793Z,6238.13
2018-08-12T08:27:32.831Z,5838.75
2018-08-12T08:28:32.822Z,5456.25
2018-08-12T08:29:32.790Z,4663.13
2018-08-12T08:30:32.799Z,5495.63
2018-08-12T08:31:32.928Z,6294.38
2018-08-12T08:32:32.867Z,6271.88
2018-08-12T08:33:32.805Z,6058.13
2018-08-12T08:34:32.808Z,6204.38
2018-08-12T08:35:32.837Z,5968.13
2018-08-12T08:36:32.832Z,6035.63
2018-08-12T08:37:32.855Z,5591.25
2018-08-12T08:38:32.823Z,5400.00
2018-08-12T08:39:32.829Z,5326.88
2018-08-12T08:40:32.835Z,5985.00
2018-08-12T08:41:32.837Z,6052.50
2018-08-12T08:42:32.855Z,6536.25
2018-08-12T08:43:32.856Z,6114.38
2018-08-12T08:44:32.854Z,6581.25
2018-08-12T08:45:32.864Z,6165.00
2018-08-12T08:46:32.867Z,6170.63
2018-08-12T08:47:32.872Z,6153.75
2018-08-12T08:48:32.879Z,6215.63
2018-08-12T08:49:32.876Z,6204.38
2018-08-12T08:50:32.965Z,6041.25
2018-08-12T08:51:32.914Z,5754.38
2018-08-12T08:52:33.456Z,5900.63
2018-08-12T08:53:32.904Z,5827.50
2018-08-12T08:54:32.905Z,5990.63
2018-08-12T08:55:32.944Z,6086.25
2018-08-12T08:56:32.919Z,6035.63
2018-08-12T08:57:32.922Z,6063.75
2018-08-12T08:58:32.930Z,6069.38
2018-08-12T08:59:32.937Z,6097.50
2018-08-12T09:00:32.941Z,6243.75
2018-08-12T09:01:32.944Z,6311.25
2018-08-12T09:02:32.965Z,6283.13
2018-08-12T09:03:32.959Z,6525.00
2018-08-12T09:04:32.965Z,6384.38
2018-08-12T09:05:32.971Z,6170.63
2018-08-12T09:06:32.977Z,6277.50
2018-08-12T09:07:32.982Z,6328.13
2018-08-12T09:08:33.188Z,6339.38
2018-08-12T09:09:32.994Z,6260.63
2018-08-12T09:10:33.002Z,6288.75
2018-08-12T09:11:33.008Z,6457.50
2018-08-12T09:12:33.012Z,6682.50
2018-08-12T09:13:33.025Z,6620.63
2018-08-12T09:14:33.028Z,6648.75
2018-08-12T09:15:33.035Z,6474.38
2018-08-12T09:16:33.041Z,6457.50
2018-08-12T09:17:33.048Z,6474.38
2018-08-12T09:18:33.054Z,6603.75
2018-08-12T09:19:33.057Z,6631.88
2018-08-12T09:20:33.061Z,6463.13
2018-08-12T09:21:33.072Z,6643.13
2018-08-12T09:22:33.082Z,6744.38
2018-08-12T09:23:33.087Z,6778.13
2018-08-12T09:24:33.093Z,6806.25
2018-08-12T09:25:33.100Z,6682.50
2018-08-12T09:26:33.104Z,6513.75
2018-08-12T09:27:33.114Z,6435.00
2018-08-12T09:28:33.123Z,6435.00
2018-08-12T09:29:33.130Z,6924.38
2018-08-12T09:30:33.134Z,7031.25
2018-08-12T09:31:33.135Z,6980.63
2018-08-12T09:32:33.149Z,7081.88
2018-08-12T09:33:33.161Z,7312.50
2018-08-12T09:34:33.162Z,7335.00
2018-08-12T09:35:33.172Z,7003.13
2018-08-12T09:36:33.174Z,6783.75
2018-08-12T09:37:33.217Z,6598.13
2018-08-12T09:38:33.192Z,7323.75
2018-08-12T09:39:33.204Z,6907.50
2018-08-12T09:40:33.209Z,6963.75
2018-08-12T09:41:33.216Z,6401.25
2018-08-12T09:42:33.241Z,6215.63
2018-08-12T09:43:33.232Z,6361.88
2018-08-12T09:44:33.242Z,6153.75
2018-08-12T09:45:33.249Z,6463.13
2018-08-12T09:46:33.251Z,6536.25
2018-08-12T09:47:33.263Z,6688.13
2018-08-12T09:48:33.268Z,6485.63
2018-08-12T09:49:33.272Z,6558.75
2018-08-12T09:50:33.289Z,6255.00
2018-08-12T09:51:33.348Z,5855.63
2018-08-12T09:52:33.299Z,5535.00
2018-08-12T09:53:33.311Z,5816.25
2018-08-12T09:54:33.318Z,6226.88
2018-08-12T09:55:33.323Z,5979.38
2018-08-12T09:56:33.339Z,5467.50
2018-08-12T09:57:33.344Z,5371.88
2018-08-12T09:58:33.415Z,5546.25
2018-08-12T09:59:33.355Z,5726.25
2018-08-12T10:00:33.359Z,5861.25
2018-08-12T10:01:33.467Z,6125.63
2018-08-12T10:02:33.375Z,6294.38
2018-08-12T10:03:33.387Z,6339.38
2018-08-12T10:04:33.396Z,5416.88
2018-08-12T10:05:33.423Z,5720.63
2018-08-12T10:06:33.410Z,5737.50
2018-08-12T10:07:33.443Z,5816.25
2018-08-12T10:08:33.416Z,5501.25
2018-08-12T10:09:33.436Z,5377.50
2018-08-12T10:10:33.441Z,4837.50
2018-08-12T10:11:33.478Z,5647.50
2018-08-12T10:12:33.454Z,6108.75
2018-08-12T10:13:33.463Z,6277.50
2018-08-12T10:14:33.467Z,6238.13
2018-08-12T10:15:33.478Z,6159.38
2018-08-12T10:16:33.477Z,5928.75
2018-08-12T10:17:33.485Z,5866.88
2018-08-12T10:18:33.505Z,6080.63
2018-08-12T10:19:33.514Z,6350.63
2018-08-12T10:20:33.507Z,6485.63
2018-08-12T10:21:33.542Z,6727.50
2018-08-12T10:30:16.426Z,5833.13
2018-08-12T10:31:16.257Z,5450.63
2018-08-12T10:33:09.915Z,4854.38
2018-08-12T10:34:09.917Z,5484.38
2018-08-12T10:35:09.947Z,5400.00
2018-08-12T10:36:09.930Z,4258.13
2018-08-12T10:37:09.947Z,4590.00
2018-08-12T10:38:09.963Z,5653.13
2018-08-12T10:39:09.961Z,6086.25
2018-08-12T10:40:09.979Z,5000.63
2018-08-12T10:41:09.977Z,6418.13
2018-08-12T10:42:09.997Z,6170.63
2018-08-12T10:43:10.003Z,6322.50
2018-08-12T10:44:10.004Z,6305.63
2018-08-12T10:45:10.012Z,6345.00
2018-08-12T10:46:10.020Z,6345.00
2018-08-12T10:47:10.029Z,6075.00
2018-08-12T10:48:10.035Z,6007.50
2018-08-12T10:49:10.046Z,6283.13
2018-08-12T10:50:10.065Z,6519.38
2018-08-12T10:51:10.061Z,6637.50
2018-08-12T10:52:10.073Z,4005.00
2018-08-12T10:53:10.073Z,5585.63
2018-08-12T10:54:10.083Z,5501.25
2018-08-12T10:55:10.096Z,5731.88
2018-08-12T10:56:10.105Z,5945.63
2018-08-12T10:57:10.111Z,6165.00
2018-08-12T10:58:10.117Z,6435.00
2018-08-12T10:59:10.124Z,6367.50
2018-08-12T11:00:10.172Z,6193.13
2018-08-12T11:01:10.160Z,5866.88
2018-08-12T11:02:10.177Z,5833.13
2018-08-12T11:03:10.175Z,5754.38
2018-08-12T11:04:10.172Z,5844.38
2018-08-12T11:05:10.178Z,5737.50
2018-08-12T11:06:10.249Z,4831.88
2018-08-12T11:07:10.232Z,3560.63
2018-08-12T11:08:10.262Z,5883.75
2018-08-12T11:09:10.229Z,5658.75
2018-08-12T11:10:10.227Z,6063.75
2018-08-12T11:11:10.240Z,5895.00
2018-08-12T11:12:10.247Z,5878.13
2018-08-12T11:13:10.257Z,5895.00
2018-08-12T11:14:10.267Z,5855.63
2018-08-12T11:15:10.271Z,5445.00
2018-08-12T11:16:10.279Z,5754.38
2018-08-12T11:17:10.318Z,6001.88
2018-08-12T11:18:10.299Z,5895.00
2018-08-12T11:19:10.308Z,4522.50
2018-08-12T11:20:10.325Z,4179.38
2018-08-12T11:21:10.349Z,4556.25
2018-08-12T11:22:10.345Z,4477.50
2018-08-12T11:23:10.348Z,5456.25
2018-08-12T11:24:10.386Z,5130.00
2018-08-12T11:25:10.360Z,5467.50
2018-08-12T11:26:10.371Z,5523.75
2018-08-12T11:27:10.459Z,5355.00
2018-08-12T11:28:10.384Z,5208.75
2018-08-12T11:29:10.396Z,4995.00
2018-08-12T11:30:10.406Z,4899.38
2018-08-12T11:31:10.412Z,4966.88
2018-08-12T11:32:10.427Z,4792.50
2018-08-12T11:33:10.432Z,4134.38
2018-08-12T11:34:10.463Z,4044.38
2018-08-12T11:35:10.460Z,4899.38
2018-08-12T11:36:10.464Z,4590.00
2018-08-12T11:37:10.464Z,4342.50
2018-08-12T11:38:10.472Z,4353.75
2018-08-12T11:39:10.480Z,4140.00
2018-08-12T11:40:10.495Z,4246.88
2018-08-12T11:41:10.544Z,3999.38
2018-08-12T11:42:10.503Z,4021.88
2018-08-12T11:43:10.511Z,4696.88
2018-08-12T11:44:10.522Z,4590.00
2018-08-12T11:45:10.543Z,4353.75
2018-08-12T11:46:10.536Z,4539.38
2018-08-12T11:47:10.585Z,4471.88
2018-08-12T11:48:10.559Z,4573.13
2018-08-12T11:49:10.615Z,4764.38
2018-08-12T11:50:10.567Z,4820.63
2018-08-12T11:51:10.578Z,4685.63
2018-08-12T11:52:10.585Z,4606.88
2018-08-12T11:53:10.586Z,5191.88
2018-08-12T11:54:10.596Z,5281.88
2018-08-12T11:55:10.604Z,5326.88
2018-08-12T11:56:10.612Z,4426.88
2018-08-12T11:57:10.620Z,4505.63
2018-08-12T11:58:10.634Z,4775.63
2018-08-12T11:59:10.636Z,4235.63
2018-08-12T12:00:10.651Z,4353.75
2018-08-12T12:01:10.652Z,4083.75
2018-08-12T12:02:10.703Z,3943.13
2018-08-12T12:03:10.668Z,4623.75
2018-08-12T12:04:10.677Z,5118.75
2018-08-12T12:05:10.685Z,4303.13
2018-08-12T12:06:10.694Z,4111.88
2018-08-12T12:07:10.706Z,1878.75
2018-08-12T12:08:10.712Z,1597.50
2018-08-12T12:09:10.718Z,4471.88
2018-08-12T12:10:10.725Z,3993.75
2018-08-12T12:11:10.729Z,4173.75
2018-08-12T12:12:10.742Z,4246.88
2018-08-12T12:13:10.790Z,1878.75
2018-08-12T12:14:10.754Z,4725.00
2018-08-12T12:15:10.764Z,4528.13
2018-08-12T12:16:10.770Z,4623.75
2018-08-12T12:17:10.779Z,4550.63
2018-08-12T12:18:10.836Z,4185.00
2018-08-12T12:19:10.803Z,4584.38
2018-08-12T12:20:10.797Z,4539.38
2018-08-12T12:21:10.803Z,4455.00
2018-08-12T12:22:10.810Z,4488.75
2018-08-12T12:23:10.816Z,4297.50
2018-08-12T12:24:10.833Z,4404.38
2018-08-12T12:25:10.838Z,3937.50
2018-08-12T12:26:10.839Z,4449.38
2018-08-12T12:27:10.852Z,4691.25
2018-08-12T12:28:10.863Z,1276.88
2018-08-12T12:29:10.869Z,1822.50
2018-08-12T12:30:10.876Z,4173.75
2018-08-12T12:31:10.879Z,4410.00
2018-08-12T12:32:10.895Z,4398.75
2018-08-12T12:33:10.892Z,4404.38
2018-08-12T12:34:10.903Z,4089.38
2018-08-12T12:35:10.909Z,3915.00
2018-08-12T12:36:10.912Z,3830.63
2018-08-12T12:37:10.924Z,4213.13
2018-08-12T12:38:10.931Z,4100.63
2018-08-12T12:39:10.939Z,3915.00
2018-08-12T12:40:10.946Z,3988.13
2018-08-12T12:41:10.957Z,3988.13
2018-08-12T12:42:10.957Z,3836.25